LEGR Airport Information

Runway Information
Runway 09 Length 9514 ft width 148 ft
Elevation 1842 ft Threshold 0 ft Heading 90
Runway 27 Length 9514 ft Width 148 ft
Elevation 1860 ft Threshold 0 ft Heading 270
Airport Frequencies
Type GND Name GND Frequency 121.7 MHZ
Type TWR Name TWR Frequency 118.85 MHZ
Airport Navaids
Type VOR-DME Name Granada Frequency 113400 KHZ
Airport Weather Information & NOTAM
ADDS - METARS form results

(0727 UTC 27 January 2021)
Data provider http://aviationweather.gov/metar/data/
 
METAR text: LEGR 270700Z 00000KT 4000 BR BKN006 SCT030 12/12 Q1026
Conditions at: LEGR (GRANADA AIRPORT , ES) observed 0700 UTC 27 January 2021
Temperature: 12.0°C (54°F)
Dewpoint: 12.0°C (54°F) [RH = 100%]
Pressure (altimeter): 30.30 inches Hg (1026.0 mb)
Winds: calm
Visibility: 2.49 miles (4.01 km)
Ceiling: 600 feet AGL
Clouds: broken clouds at 600 feet AGL
scattered clouds at 3000 feet AGL
Weather: BR  (mist)

METAR text: LEGR 270630Z 00000KT 4000 BR -DZ BKN006 SCT030 12/12 Q1026
Conditions at: LEGR (GRANADA AIRPORT , ES) observed 0630 UTC 27 January 2021
Temperature: 12.0°C (54°F)
Dewpoint: 12.0°C (54°F) [RH = 100%]
Pressure (altimeter): 30.30 inches Hg (1026.0 mb)
Winds: calm
Visibility: 2.49 miles (4.01 km)
Ceiling: 600 feet AGL
Clouds: broken clouds at 600 feet AGL
scattered clouds at 3000 feet AGL
Weather: BR -DZ  (mist, light drizzle)

Forecast for: LEGR (GRANADA AIRPORT , ES)
Text: TAF LEGR 270200Z 2703/2803 VRB02KT 9999 SCT005 SCT020 TX19/2715Z TN09/2803Z
Forecast period: 0300 UTC 27 January 2021 to 0300 UTC 28 January 2021
Forecast type: FROM: standard forecast or significant change
Winds: variable direction winds at 2 MPH (2 knots; 1.0 m/s)
Visibility: 6 or more miles (10+ km)
Ceiling: at least 12,000 feet AGL
Clouds: scattered clouds at 500 feet AGL
scattered clouds at 2000 feet AGL
Weather: no significant weather forecast for this period
Text: TEMPO 2703/2710 3000 BR BKN005
Forecast period: 0300 to 1000 UTC 27 January 2021
Forecast type: TEMPORARY: The following changes expected for less than half the time period
Visibility: 1.86 miles (2.99 km)
Ceiling: 500 feet AGL
Clouds: broken clouds at 500 feet AGL
Weather: BR  (mist)
Text: PROB30
Forecast period: 0300 to 1000 UTC 27 January 2021
Forecast type: TEMPORARY: The following changes expected for less than half the time period
Visibility: 0.50 miles (0.80 km)
Ceiling: indefinite ceiling with vertical visibility of 100 feet AGL
Clouds: obscured sky
Weather: FG  (fog)
Text: TEMPO 2703/2710 0800 FG VV001
Forecast period: 1500 to 1800 UTC 27 January 2021
Forecast type: TEMPORARY: The following changes expected for less than half the time period
Winds: from the NW (310 degrees) at 12 MPH (10 knots; 5.1 m/s)
Visibility: missing
Ceiling: unknown
Clouds: missing
Weather: no significant weather forecast for this period